FredonyerEastRWIS Atmospheric Data: 10/11/2018 Summary  Detailed Graphs  Station List

  Temperature     Wind Precipitation Visibility
Timestamp Air Wet
Bulb
Dew-
point
24-hr
Max
24-hr
Min
Relative
Humidity
Atmospheric
Pressure
Avg
Speed
Avg
Dir
Spot
Speed
Spot
Dir
Max
Speed
Max
Dir
  Rate Situation Start End 1 hr 3 hr 6 hr 12 hr 24 hr   Situation
Date Time °F °F °F °F °F % in Hg mph ° mph ° mph ° Y/N in/hr text Date Time Date Time in in in in in mi text
10/11/2018 12:08 AM 33.44 32.00 29.66 57.38 29.48 84.0 Not Reported 0.00 N 0.00 W 0.00 W No 0.000 No Precipitation 10/05/2018 11:09 PM 10/05/2018 11:14 PM 0.000 0.000 0.000 0.000 0.000 Not Reported Not Reported
10/11/2018 12:23 AM 32.72 31.46 29.30 57.38 29.48 86.0 Not Reported 0.00 N 0.00 SW 0.67 SW No 0.000 No Precipitation 10/05/2018 11:09 PM 10/05/2018 11:14 PM 0.000 0.000 0.000 0.000 0.000 Not Reported Not Reported
10/11/2018 12:38 AM 32.54 31.46 29.48 57.38 29.48 88.0 Not Reported 0.22 N 0.00 N 0.45 NW No 0.000 No Precipitation 10/05/2018 11:09 PM 10/05/2018 11:14 PM 0.000 0.000 0.000 0.000 0.000 Not Reported Not Reported
10/11/2018 12:53 AM 32.18 31.10 29.30 57.38 29.48 88.0 Not Reported 0.67 NW 0.00 NW 0.00 NW No 0.000 No Precipitation 10/05/2018 11:09 PM 10/05/2018 11:14 PM 0.000 0.000 0.000 0.000 0.000 Not Reported Not Reported
10/11/2018 01:08 AM 31.64 30.74 29.12 57.38 29.48 90.0 Not Reported 0.00 N 0.00 NW 0.89 NW No 0.000 No Precipitation 10/05/2018 11:09 PM 10/05/2018 11:14 PM 0.000 0.000 0.000 0.000 0.000 Not Reported Not Reported
10/11/2018 01:23 AM 31.28 30.38 28.94 57.38 29.48 91.0 Not Reported 0.22 NW 0.00 NW 0.22 NW No 0.000 No Precipitation 10/05/2018 11:09 PM 10/05/2018 11:14 PM 0.000 0.000 0.000 0.000 0.000 Not Reported Not Reported
10/11/2018 01:38 AM 31.28 30.38 28.94 57.38 29.48 91.0 Not Reported 0.00 N 0.00 NW 0.45 NW No 0.000 No Precipitation 10/05/2018 11:09 PM 10/05/2018 11:14 PM 0.000 0.000 0.000 0.000 0.000 Not Reported Not Reported
10/11/2018 01:53 AM 30.92 30.02 28.40 57.38 29.48 90.0 Not Reported 0.00 N 0.00 NW 0.89 NW No 0.000 No Precipitation 10/05/2018 11:09 PM 10/05/2018 11:14 PM 0.000 0.000 0.000 0.000 0.000 Not Reported Not Reported
10/11/2018 02:08 AM 30.38 29.66 28.22 57.38 29.48 91.0 Not Reported 0.00 N 0.00 NW 0.00 NW No 0.000 No Precipitation 10/05/2018 11:09 PM 10/05/2018 11:14 PM 0.000 0.000 0.000 0.000 0.000 Not Reported Not Reported
10/11/2018 02:23 AM 29.84 29.12 28.04 57.38 29.48 92.0 Not Reported 0.67 NW 0.00 NW 0.45 NW No 0.000 No Precipitation 10/05/2018 11:09 PM 10/05/2018 11:14 PM 0.000 0.000 0.000 0.000 0.000 Not Reported Not Reported
10/11/2018 02:38 AM 29.66 28.94 27.86 57.38 29.48 93.0 Not Reported 0.00 N 0.00 NW 0.89 NW No 0.000 No Precipitation 10/05/2018 11:09 PM 10/05/2018 11:14 PM 0.000 0.000 0.000 0.000 0.000 Not Reported Not Reported
10/11/2018 02:53 AM 29.12 28.58 27.68 57.38 29.12 94.0 Not Reported 0.00 N 0.22 NW 0.00 NW No 0.000 No Precipitation 10/05/2018 11:09 PM 10/05/2018 11:14 PM 0.000 0.000 0.000 0.000 0.000 Not Reported Not Reported
10/11/2018 03:08 AM 29.12 28.58 27.86 57.38 28.94 94.0 Not Reported 0.00 N 0.00 NW 0.89 NW No 0.000 No Precipitation 10/05/2018 11:09 PM 10/05/2018 11:14 PM 0.000 0.000 0.000 0.000 0.000 Not Reported Not Reported
10/11/2018 03:23 AM 28.94 28.58 27.68 57.38 28.94 95.0 Not Reported 0.45 NW 0.89 NW 0.00 NW No 0.000 No Precipitation 10/05/2018 11:09 PM 10/05/2018 11:14 PM 0.000 0.000 0.000 0.000 0.000 Not Reported Not Reported
10/11/2018 03:38 AM 28.94 28.58 27.86 57.38 28.76 95.0 Not Reported 0.45 S 0.00 S 0.89 NW No 0.000 No Precipitation 10/05/2018 11:09 PM 10/05/2018 11:14 PM 0.000 0.000 0.000 0.000 0.000 Not Reported Not Reported
10/11/2018 03:53 AM 28.40 28.04 27.32 57.38 28.40 95.0 Not Reported 0.00 N 0.00 S 0.00 S No 0.000 No Precipitation 10/05/2018 11:09 PM 10/05/2018 11:14 PM 0.000 0.000 0.000 0.000 0.000 Not Reported Not Reported
10/11/2018 04:08 AM 28.22 28.04 27.32 57.38 28.22 96.0 Not Reported 0.00 N 0.00 W 0.22 S No 0.000 No Precipitation 10/05/2018 11:09 PM 10/05/2018 11:14 PM 0.000 0.000 0.000 0.000 0.000 Not Reported Not Reported
10/11/2018 04:23 AM 28.04 27.68 27.14 57.38 27.86 96.0 Not Reported 0.00 N 0.00 NW 0.22 NW No 0.000 No Precipitation 10/05/2018 11:09 PM 10/05/2018 11:14 PM 0.000 0.000 0.000 0.000 0.000 Not Reported Not Reported
10/11/2018 04:38 AM 27.86 27.50 27.14 57.38 27.86 96.0 Not Reported 0.00 NW 0.45 NW 0.00 NW No 0.000 No Precipitation 10/05/2018 11:09 PM 10/05/2018 11:14 PM 0.000 0.000 0.000 0.000 0.000 Not Reported Not Reported
10/11/2018 04:53 AM 27.50 27.32 26.78 57.38 27.50 96.0 Not Reported 0.00 N 0.00 NW 0.00 NW No 0.000 No Precipitation 10/05/2018 11:09 PM 10/05/2018 11:14 PM 0.000 0.000 0.000 0.000 0.000 Not Reported Not Reported
10/11/2018 05:08 AM 27.50 27.32 26.78 57.38 27.50 97.0 Not Reported 0.00 N 0.00 NW 0.45 NW No 0.000 No Precipitation 10/05/2018 11:09 PM 10/05/2018 11:14 PM 0.000 0.000 0.000 0.000 0.000 Not Reported Not Reported
10/11/2018 05:23 AM 27.32 27.14 26.60 57.38 27.32 97.0 Not Reported 0.00 N 0.00 NW 0.45 NW No 0.000 No Precipitation 10/05/2018 11:09 PM 10/05/2018 11:14 PM 0.000 0.000 0.000 0.000 0.000 Not Reported Not Reported
10/11/2018 05:38 AM 27.14 26.78 26.42 57.38 26.96 97.0 Not Reported 0.00 N 0.00 NW 0.00 NW No 0.000 No Precipitation 10/05/2018 11:09 PM 10/05/2018 11:14 PM 0.000 0.000 0.000 0.000 0.000 Not Reported Not Reported
10/11/2018 05:53 AM 26.96 26.78 26.42 57.38 26.96 97.0 Not Reported 0.00 NW 0.22 NW 0.00 NW No 0.000 No Precipitation 10/05/2018 11:09 PM 10/05/2018 11:14 PM 0.000 0.000 0.000 0.000 0.000 Not Reported Not Reported
10/11/2018 06:08 AM 26.96 26.78 26.42 57.38 26.78 97.0 Not Reported 0.22 NW 0.45 NW 0.45 NW No 0.000 No Precipitation 10/05/2018 11:09 PM 10/05/2018 11:14 PM 0.000 0.000 0.000 0.000 0.000 Not Reported Not Reported
10/11/2018 06:23 AM 26.78 26.60 26.24 57.38 26.78 97.0 Not Reported 0.00 N 0.00 W 0.22 W No 0.000 No Precipitation 10/05/2018 11:09 PM 10/05/2018 11:14 PM 0.000 0.000 0.000 0.000 0.000 Not Reported Not Reported
10/11/2018 06:38 AM 26.60 26.42 26.06 57.38 26.60 97.0 Not Reported 0.00 N 0.00 W 0.00 W No 0.000 No Precipitation 10/05/2018 11:09 PM 10/05/2018 11:14 PM 0.000 0.000 0.000 0.000 0.000 Not Reported Not Reported
10/11/2018 06:53 AM 26.60 26.42 26.06 57.38 26.42 97.0 Not Reported 0.00 N 0.00 W 0.67 W No 0.000 No Precipitation 10/05/2018 11:09 PM 10/05/2018 11:14 PM 0.000 0.000 0.000 0.000 0.000 Not Reported Not Reported
10/11/2018 07:08 AM 26.60 26.42 26.06 57.38 26.42 97.0 Not Reported 0.89 NW 0.22 NW 0.00 W No 0.000 No Precipitation 10/05/2018 11:09 PM 10/05/2018 11:14 PM 0.000 0.000 0.000 0.000 0.000 Not Reported Not Reported
10/11/2018 07:23 AM 26.60 26.42 26.06 57.38 26.42 97.0 Not Reported 0.00 N 0.00 NW 0.67 NW No 0.000 No Precipitation 10/05/2018 11:09 PM 10/05/2018 11:14 PM 0.000 0.000 0.000 0.000 0.000 Not Reported Not Reported
10/11/2018 07:38 AM 26.78 26.60 26.24 57.38 26.42 97.0 Not Reported 0.00 N 0.00 NW 0.00 NW No 0.000 No Precipitation 10/05/2018 11:09 PM 10/05/2018 11:14 PM 0.000 0.000 0.000 0.000 0.000 Not Reported Not Reported
10/11/2018 07:53 AM 27.68 27.50 27.14 57.38 26.42 97.0 Not Reported 0.00 N 0.00 NW 0.00 NW No 0.000 No Precipitation 10/05/2018 11:09 PM 10/05/2018 11:14 PM 0.000 0.000 0.000 0.000 0.000 Not Reported Not Reported
10/11/2018 08:08 AM 28.76 28.58 28.22 57.38 26.42 97.0 Not Reported 0.00 N 0.22 SE 0.22 E No 0.000 No Precipitation 10/05/2018 11:09 PM 10/05/2018 11:14 PM 0.000 0.000 0.000 0.000 0.000 Not Reported Not Reported
10/11/2018 08:23 AM 30.38 30.20 29.84 57.38 26.42 97.0 Not Reported 0.00 N 0.00 NE 0.00 SE No 0.000 No Precipitation 10/05/2018 11:09 PM 10/05/2018 11:14 PM 0.000 0.000 0.000 0.000 0.000 Not Reported Not Reported
10/11/2018 08:38 AM 32.00 31.64 30.92 57.38 26.42 94.0 Not Reported 0.00 N 0.00 E 0.00 E No 0.000 No Precipitation 10/05/2018 11:09 PM 10/05/2018 11:14 PM 0.000 0.000 0.000 0.000 0.000 Not Reported Not Reported
10/11/2018 08:53 AM 37.22 34.88 31.82 57.38 26.42 79.0 Not Reported 0.67 SE 0.89 S 1.34 S No 0.000 No Precipitation 10/05/2018 11:09 PM 10/05/2018 11:14 PM 0.000 0.000 0.000 0.000 0.000 Not Reported Not Reported
10/11/2018 09:08 AM 40.28 36.32 30.92 57.38 26.42 68.0 Not Reported 0.89 S 0.45 SW 1.34 SE No 0.000 No Precipitation 10/05/2018 11:09 PM 10/05/2018 11:14 PM 0.000 0.000 0.000 0.000 0.000 Not Reported Not Reported
10/11/2018 09:23 AM 42.80 37.58 30.38 57.38 26.42 60.0 Not Reported 1.57 E 0.89 E 3.58 NE No 0.000 No Precipitation 10/05/2018 11:09 PM 10/05/2018 11:14 PM 0.000 0.000 0.000 0.000 0.000 Not Reported Not Reported
10/11/2018 09:38 AM 42.80 37.58 30.20 57.38 26.42 60.0 Not Reported 3.80 SE 4.47 S 5.14 E No 0.000 No Precipitation 10/05/2018 11:09 PM 10/05/2018 11:14 PM 0.000 0.000 0.000 0.000 0.000 Not Reported Not Reported
10/11/2018 09:53 AM 43.52 37.76 29.84 57.38 26.42 57.0 Not Reported 4.92 S 4.70 S 5.59 SE No 0.000 No Precipitation 10/05/2018 11:09 PM 10/05/2018 11:14 PM 0.000 0.000 0.000 0.000 0.000 Not Reported Not Reported
10/11/2018 10:08 AM 45.14 38.84 30.38 57.38 26.42 55.0 Not Reported 4.47 SE 2.46 E 6.49 SE No 0.000 No Precipitation 10/05/2018 11:09 PM 10/05/2018 11:14 PM 0.000 0.000 0.000 0.000 0.000 Not Reported Not Reported
10/11/2018 10:23 AM 46.94 39.56 29.66 57.38 26.42 50.0 Not Reported 2.91 E 4.25 E 7.83 SE No 0.000 No Precipitation 10/05/2018 11:09 PM 10/05/2018 11:14 PM 0.000 0.000 0.000 0.000 0.000 Not Reported Not Reported
10/11/2018 10:38 AM 48.92 40.64 29.48 57.38 26.42 46.0 Not Reported 2.46 N 6.49 E 5.82 SE No 0.000 No Precipitation 10/05/2018 11:09 PM 10/05/2018 11:14 PM 0.000 0.000 0.000 0.000 0.000 Not Reported Not Reported
10/11/2018 10:53 AM 50.54 41.54 29.48 57.38 26.42 43.0 Not Reported 1.57 NE 4.47 N 4.70 N No 0.000 No Precipitation 10/05/2018 11:09 PM 10/05/2018 11:14 PM 0.000 0.000 0.000 0.000 0.000 Not Reported Not Reported
10/11/2018 11:08 AM 50.54 41.54 29.48 57.38 26.42 43.0 Not Reported 2.46 E 4.92 NE 5.14 SW No 0.000 No Precipitation 10/05/2018 11:09 PM 10/05/2018 11:14 PM 0.000 0.000 0.000 0.000 0.000 Not Reported Not Reported
10/11/2018 11:23 AM 50.00 41.18 29.84 57.38 26.42 45.0 Not Reported 5.14 N 4.92 NE 6.04 SE No 0.000 No Precipitation 10/05/2018 11:09 PM 10/05/2018 11:14 PM 0.000 0.000 0.000 0.000 0.000 Not Reported Not Reported
10/11/2018 11:38 AM 51.08 41.90 30.02 57.38 26.42 43.0 Not Reported 3.36 NW 3.80 S 8.50 NE No 0.000 No Precipitation 10/05/2018 11:09 PM 10/05/2018 11:14 PM 0.000 0.000 0.000 0.000 0.000 Not Reported Not Reported
10/11/2018 11:53 AM 51.26 41.90 29.84 57.38 26.42 43.0 Not Reported 2.46 SE 4.25 NE 7.38 E No 0.000 No Precipitation 10/05/2018 11:09 PM 10/05/2018 11:14 PM 0.000 0.000 0.000 0.000 0.000 Not Reported Not Reported
10/11/2018 12:08 PM 51.44 42.08 30.38 57.38 26.42 43.0 Not Reported 5.82 NE 5.14 N 6.04 S No 0.000 No Precipitation 10/05/2018 11:09 PM 10/05/2018 11:14 PM 0.000 0.000 0.000 0.000 0.000 Not Reported Not Reported
10/11/2018 12:23 PM 52.16 42.44 30.20 57.38 26.42 42.0 Not Reported 1.79 SE 4.47 E 6.49 NE No 0.000 No Precipitation 10/05/2018 11:09 PM 10/05/2018 11:14 PM 0.000 0.000 0.000 0.000 0.000 Not Reported Not Reported
10/11/2018 12:38 PM 51.80 42.26 30.02 57.38 26.42 42.0 Not Reported 3.58 E 8.05 SE 5.82 NW No 0.000 No Precipitation 10/05/2018 11:09 PM 10/05/2018 11:14 PM 0.000 0.000 0.000 0.000 0.000 Not Reported Not Reported
10/11/2018 12:53 PM 51.98 42.44 30.56 57.38 26.42 43.0 Not Reported 7.38 SE 4.03 NE 7.83 SE No 0.000 No Precipitation 10/05/2018 11:09 PM 10/05/2018 11:14 PM 0.000 0.000 0.000 0.000 0.000 Not Reported Not Reported
10/11/2018 01:08 PM 51.62 42.44 30.74 57.38 26.42 44.0 Not Reported 4.03 E 2.68 NW 10.51 SE No 0.000 No Precipitation 10/05/2018 11:09 PM 10/05/2018 11:14 PM 0.000 0.000 0.000 0.000 0.000 Not Reported Not Reported
10/11/2018 01:23 PM 53.60 43.16 29.84 57.38 26.42 39.0 Not Reported 3.13 E 6.49 S 6.71 E No 0.000 No Precipitation 10/05/2018 11:09 PM 10/05/2018 11:14 PM 0.000 0.000 0.000 0.000 0.000 Not Reported Not Reported
10/11/2018 01:38 PM 54.14 43.52 30.20 57.38 26.42 39.0 Not Reported 2.24 NE 0.45 NE 6.49 S No 0.000 No Precipitation 10/05/2018 11:09 PM 10/05/2018 11:14 PM 0.000 0.000 0.000 0.000 0.000 Not Reported Not Reported
10/11/2018 01:53 PM 54.14 43.52 30.38 57.38 26.42 39.0 Not Reported 2.46 E 3.13 S 7.61 S No 0.000 No Precipitation 10/05/2018 11:09 PM 10/05/2018 11:14 PM 0.000 0.000 0.000 0.000 0.000 Not Reported Not Reported
10/11/2018 02:08 PM 54.50 43.88 30.38 57.38 26.42 39.0 Not Reported 5.82 SE 4.92 SE 7.38 S No 0.000 No Precipitation 10/05/2018 11:09 PM 10/05/2018 11:14 PM 0.000 0.000 0.000 0.000 0.000 Not Reported Not Reported
10/11/2018 02:23 PM 55.58 44.24 30.20 57.38 26.42 37.0 Not Reported 2.46 SW 3.80 S 10.07 NE No 0.000 No Precipitation 10/05/2018 11:09 PM 10/05/2018 11:14 PM 0.000 0.000 0.000 0.000 0.000 Not Reported Not Reported
10/11/2018 02:39 PM 55.94 44.42 30.02 57.38 26.42 36.0 Not Reported 3.13 NE 7.38 SE 9.17 SE No 0.000 No Precipitation 10/05/2018 11:09 PM 10/05/2018 11:14 PM 0.000 0.000 0.000 0.000 0.000 Not Reported Not Reported
10/11/2018 02:53 PM 54.68 43.70 30.20 57.38 26.42 38.0 Not Reported 3.58 N 2.68 S 6.49 E No 0.000 No Precipitation 10/05/2018 11:09 PM 10/05/2018 11:14 PM 0.000 0.000 0.000 0.000 0.000 Not Reported Not Reported
10/11/2018 03:08 PM 52.70 42.80 30.02 57.38 26.42 41.0 Not Reported 2.68 SE 2.01 SE 5.37 NE No 0.000 No Precipitation 10/05/2018 11:09 PM 10/05/2018 11:14 PM 0.000 0.000 0.000 0.000 0.000 Not Reported Not Reported
10/11/2018 03:23 PM 54.32 43.52 29.48 57.38 26.42 37.0 Not Reported 2.46 SW 1.12 E 9.84 NE No 0.000 No Precipitation 10/05/2018 11:09 PM 10/05/2018 11:14 PM 0.000 0.000 0.000 0.000 0.000 Not Reported Not Reported
10/11/2018 03:39 PM 54.68 43.16 28.22 57.38 26.42 35.0 Not Reported 4.03 S 0.22 NW 7.38 S No 0.000 No Precipitation 10/05/2018 11:09 PM 10/05/2018 11:14 PM 0.000 0.000 0.000 0.000 0.000 Not Reported Not Reported
10/11/2018 03:53 PM 56.30 44.06 28.40 57.92 26.42 34.0 Not Reported 5.14 SE 4.70 SE 8.05 E No 0.000 No Precipitation 10/05/2018 11:09 PM 10/05/2018 11:14 PM 0.000 0.000 0.000 0.000 0.000 Not Reported Not Reported
10/11/2018 04:08 PM 56.48 43.70 27.14 57.92 26.42 31.0 Not Reported 3.80 E 1.34 E 6.26 SE No 0.000 No Precipitation 10/05/2018 11:09 PM 10/05/2018 11:14 PM 0.000 0.000 0.000 0.000 0.000 Not Reported Not Reported
10/11/2018 04:23 PM 56.48 43.88 27.32 57.92 26.42 32.0 Not Reported 3.13 S 5.82 S 10.07 SE No 0.000 No Precipitation 10/05/2018 11:09 PM 10/05/2018 11:14 PM 0.000 0.000 0.000 0.000 0.000 Not Reported Not Reported
10/11/2018 04:38 PM 56.66 43.70 26.60 57.92 26.42 31.0 Not Reported 2.68 SE 2.91 SE 8.28 SE No 0.000 No Precipitation 10/05/2018 11:09 PM 10/05/2018 11:14 PM 0.000 0.000 0.000 0.000 0.000 Not Reported Not Reported
10/11/2018 04:53 PM 55.76 43.52 27.32 57.92 26.42 33.0 Not Reported 2.01 NE 4.47 SW 6.26 SE No 0.000 No Precipitation 10/05/2018 11:09 PM 10/05/2018 11:14 PM 0.000 0.000 0.000 0.000 0.000 Not Reported Not Reported
10/11/2018 05:08 PM 55.58 42.98 26.06 57.92 26.42 31.0 Not Reported 2.46 SE 2.68 NW 7.16 SE No 0.000 No Precipitation 10/05/2018 11:09 PM 10/05/2018 11:14 PM 0.000 0.000 0.000 0.000 0.000 Not Reported Not Reported
10/11/2018 05:23 PM 53.78 42.26 26.24 57.92 26.42 33.0 Not Reported 2.01 NE 3.36 N 5.59 NE No 0.000 No Precipitation 10/05/2018 11:09 PM 10/05/2018 11:14 PM 0.000 0.000 0.000 0.000 0.000 Not Reported Not Reported
10/11/2018 05:38 PM 53.06 41.90 26.60 57.92 26.42 35.0 Not Reported 0.67 W 1.79 NW 4.70 SW No 0.000 No Precipitation 10/05/2018 11:09 PM 10/05/2018 11:14 PM 0.000 0.000 0.000 0.000 0.000 Not Reported Not Reported
10/11/2018 05:54 PM 52.34 41.18 25.52 57.92 26.42 34.0 Not Reported 2.91 SE 1.34 NE 4.25 SW No 0.000 No Precipitation 10/05/2018 11:09 PM 10/05/2018 11:14 PM 0.000 0.000 0.000 0.000 0.000 Not Reported Not Reported
10/11/2018 06:08 PM 51.44 40.82 25.88 57.92 26.42 36.0 Not Reported 0.45 S 0.45 SE 4.25 E No 0.000 No Precipitation 10/05/2018 11:09 PM 10/05/2018 11:14 PM 0.000 0.000 0.000 0.000 0.000 Not Reported Not Reported
10/11/2018 06:23 PM 49.82 40.10 26.06 57.92 26.42 39.0 Not Reported 0.89 NW 0.00 NW 4.03 NE No 0.000 No Precipitation 10/05/2018 11:09 PM 10/05/2018 11:14 PM 0.000 0.000 0.000 0.000 0.000 Not Reported Not Reported
10/11/2018 06:38 PM 48.38 39.38 26.42 57.92 26.42 41.0 Not Reported 0.22 NE 1.34 NW 3.36 NE No 0.000 No Precipitation 10/05/2018 11:09 PM 10/05/2018 11:14 PM 0.000 0.000 0.000 0.000 0.000 Not Reported Not Reported
10/11/2018 06:53 PM 46.22 38.48 27.32 57.92 26.42 46.0 Not Reported 0.89 W 1.12 W 2.68 S No 0.000 No Precipitation 10/05/2018 11:09 PM 10/05/2018 11:14 PM 0.000 0.000 0.000 0.000 0.000 Not Reported Not Reported
10/11/2018 07:08 PM 44.60 37.58 27.32 57.92 26.42 49.0 Not Reported 1.12 W 1.79 W 2.46 N No 0.000 No Precipitation 10/05/2018 11:09 PM 10/05/2018 11:14 PM 0.000 0.000 0.000 0.000 0.000 Not Reported Not Reported
10/11/2018 07:23 PM 43.34 36.68 26.96 57.92 26.42 51.0 Not Reported 0.00 E 1.34 S 2.46 NW No 0.000 No Precipitation 10/05/2018 11:09 PM 10/05/2018 11:14 PM 0.000 0.000 0.000 0.000 0.000 Not Reported Not Reported
10/11/2018 07:38 PM 41.90 35.96 27.14 57.92 26.42 55.0 Not Reported 1.34 NW 1.57 N 3.13 NW No 0.000 No Precipitation 10/05/2018 11:09 PM 10/05/2018 11:14 PM 0.000 0.000 0.000 0.000 0.000 Not Reported Not Reported
10/11/2018 07:53 PM 41.18 35.60 27.14 57.92 26.42 56.0 Not Reported 0.45 N 0.67 NW 1.79 N No 0.000 No Precipitation 10/05/2018 11:09 PM 10/05/2018 11:14 PM 0.000 0.000 0.000 0.000 0.000 Not Reported Not Reported
10/11/2018 08:08 PM 39.74 34.70 26.60 57.92 26.42 58.0 Not Reported 0.45 N 0.00 NE 1.34 N No 0.000 No Precipitation 10/05/2018 11:09 PM 10/05/2018 11:14 PM 0.000 0.000 0.000 0.000 0.000 Not Reported Not Reported
10/11/2018 08:23 PM 39.38 34.34 26.60 57.92 26.42 59.0 Not Reported 1.12 NW 1.12 NE 1.34 W No 0.000 No Precipitation 10/05/2018 11:09 PM 10/05/2018 11:14 PM 0.000 0.000 0.000 0.000 0.000 Not Reported Not Reported
10/11/2018 08:38 PM 39.02 33.98 26.42 57.92 26.42 59.0 Not Reported 0.00 N 0.00 N 2.46 NE No 0.000 No Precipitation 10/05/2018 11:09 PM 10/05/2018 11:14 PM 0.000 0.000 0.000 0.000 0.000 Not Reported Not Reported
10/11/2018 08:53 PM 37.58 33.26 26.24 57.92 26.42 62.0 Not Reported 0.00 N 0.00 NW 0.45 NW No 0.000 No Precipitation 10/05/2018 11:09 PM 10/05/2018 11:14 PM 0.000 0.000 0.000 0.000 0.000 Not Reported Not Reported
10/11/2018 09:08 PM 36.86 32.72 25.88 57.92 26.42 63.0 Not Reported 0.22 N 1.57 NW 2.01 N No 0.000 No Precipitation 10/05/2018 11:09 PM 10/05/2018 11:14 PM 0.000 0.000 0.000 0.000 0.000 Not Reported Not Reported
10/11/2018 09:23 PM 36.50 32.36 25.70 57.92 26.42 64.0 Not Reported 0.00 NW 0.00 SW 1.79 NW No 0.000 No Precipitation 10/05/2018 11:09 PM 10/05/2018 11:14 PM 0.000 0.000 0.000 0.000 0.000 Not Reported Not Reported
10/11/2018 09:38 PM 35.42 31.82 25.34 57.92 26.42 66.0 Not Reported 1.12 NW 0.67 NW 1.57 NW No 0.000 No Precipitation 10/05/2018 11:09 PM 10/05/2018 11:14 PM 0.000 0.000 0.000 0.000 0.000 Not Reported Not Reported
10/11/2018 09:53 PM 35.06 31.46 25.16 57.92 26.42 66.0 Not Reported 1.57 N 1.79 N 2.24 NW No 0.000 No Precipitation 10/05/2018 11:09 PM 10/05/2018 11:14 PM 0.000 0.000 0.000 0.000 0.000 Not Reported Not Reported
10/11/2018 10:08 PM 35.06 31.64 25.34 57.92 26.42 67.0 Not Reported 0.89 N 1.34 NW 2.01 N No 0.000 No Precipitation 10/05/2018 11:09 PM 10/05/2018 11:14 PM 0.000 0.000 0.000 0.000 0.000 Not Reported Not Reported
10/11/2018 10:23 PM 33.98 30.74 24.98 57.92 26.42 68.0 Not Reported 0.22 W 0.89 W 1.12 W No 0.000 No Precipitation 10/05/2018 11:09 PM 10/05/2018 11:14 PM 0.000 0.000 0.000 0.000 0.000 Not Reported Not Reported
10/11/2018 10:38 PM 33.08 30.20 24.98 57.92 26.42 71.0 Not Reported 0.67 SW 0.45 NW 2.24 NW No 0.000 No Precipitation 10/05/2018 11:09 PM 10/05/2018 11:14 PM 0.000 0.000 0.000 0.000 0.000 Not Reported Not Reported
10/11/2018 10:53 PM 32.18 29.66 24.98 57.92 26.42 73.0 Not Reported 0.89 W 0.67 W 1.12 SW No 0.000 No Precipitation 10/05/2018 11:09 PM 10/05/2018 11:14 PM 0.000 0.000 0.000 0.000 0.000 Not Reported Not Reported
10/11/2018 11:08 PM 32.00 29.30 24.26 57.92 26.42 72.0 Not Reported 1.12 NW 1.57 NW 1.79 NW No 0.000 No Precipitation 10/05/2018 11:09 PM 10/05/2018 11:14 PM 0.000 0.000 0.000 0.000 0.000 Not Reported Not Reported
10/11/2018 11:23 PM 31.82 29.30 24.44 57.92 26.42 73.0 Not Reported 0.00 N 1.57 NW 2.46 NW No 0.000 No Precipitation 10/05/2018 11:09 PM 10/05/2018 11:14 PM 0.000 0.000 0.000 0.000 0.000 Not Reported Not Reported
10/11/2018 11:38 PM 31.28 28.76 24.08 57.92 26.42 74.0 Not Reported 0.67 NW 0.89 N 2.91 NW No 0.000 No Precipitation 10/05/2018 11:09 PM 10/05/2018 11:14 PM 0.000 0.000 0.000 0.000 0.000 Not Reported Not Reported
10/11/2018 11:53 PM 31.28 28.76 24.08 57.92 26.42 74.0 Not Reported 0.89 W 0.00 W 2.91 NW No 0.000 No Precipitation 10/05/2018 11:09 PM 10/05/2018 11:14 PM 0.000 0.000 0.000 0.000 0.000 Not Reported Not Reported